createdAt,value
2023-01-01T00:01:59.810Z,1.00
2023-01-01T00:04:28.936Z,1.00
2023-01-01T00:06:58.561Z,1.00
2023-01-01T00:09:44.419Z,1.00
2023-01-01T00:12:13.092Z,1.00
2023-01-01T00:14:43.020Z,1.00
2023-01-01T00:17:11.672Z,13.10
2023-01-01T00:19:39.817Z,99.90
2023-01-01T00:22:35.359Z,1.00
2023-01-01T00:24:57.484Z,1.00
2023-01-01T00:27:26.109Z,1.00
2023-01-01T00:29:54.213Z,1.00
2023-01-01T00:32:23.107Z,99.90
2023-01-01T00:34:51.913Z,1.00
2023-01-01T00:37:21.379Z,99.90
2023-01-01T00:39:49.424Z,1.00
2023-01-01T00:42:17.560Z,1.00
2023-01-01T00:44:45.614Z,99.90
2023-01-01T00:47:13.695Z,1.00
2023-01-01T00:49:41.798Z,32.80
2023-01-01T00:52:09.881Z,24.60
2023-01-01T00:54:39.430Z,99.90
2023-01-01T00:57:07.543Z,99.90
2023-01-01T00:59:35.588Z,99.90
2023-01-01T01:02:03.743Z,99.90
2023-01-01T01:04:31.891Z,59.40
2023-01-01T01:06:59.888Z,1.00
2023-01-01T01:09:28.027Z,1.00
2023-01-01T01:12:17.697Z,99.90
2023-01-01T01:14:45.584Z,99.90
2023-01-01T01:17:13.718Z,99.90
2023-01-01T01:19:41.787Z,99.90
2023-01-01T01:22:09.851Z,99.90
2023-01-01T01:24:37.919Z,59.70
2023-01-01T01:27:07.372Z,99.90
2023-01-01T01:29:35.581Z,1.00
2023-01-01T01:32:03.658Z,1.00
2023-01-01T01:34:31.698Z,1.00
2023-01-01T01:36:59.718Z,1.00
2023-01-01T01:39:27.783Z,1.00
2023-01-01T01:41:55.848Z,1.00
2023-01-01T01:44:51.446Z,99.90
2023-01-01T01:47:24.833Z,99.90
2023-01-01T01:49:57.002Z,99.90
2023-01-01T01:52:25.853Z,99.90
2023-01-01T01:54:54.344Z,99.90
2023-01-01T01:57:23.666Z,99.90
2023-01-01T01:59:57.263Z,99.90
2023-01-01T02:02:33.326Z,99.90
2023-01-01T02:05:01.687Z,99.90
2023-01-01T02:07:32.738Z,99.90
2023-01-01T02:10:02.571Z,99.90
2023-01-01T02:12:30.776Z,99.90
2023-01-01T02:15:00.425Z,99.90
2023-01-01T02:17:38.939Z,99.90
2023-01-01T02:20:38.327Z,99.90
2023-01-01T02:23:29.839Z,99.90
2023-01-01T02:26:12.066Z,99.90
2023-01-01T02:28:51.641Z,1.00
2023-01-01T02:31:24.186Z,19.40
2023-01-01T02:33:56.108Z,1.00
2023-01-01T02:36:26.245Z,1.00
2023-01-01T02:38:58.062Z,8.00
2023-01-01T02:41:29.582Z,1.00
2023-01-01T02:46:32.717Z,1.00
2023-01-01T02:49:06.188Z,1.00
2023-01-01T02:51:45.541Z,1.00
2023-01-01T02:54:26.578Z,99.90
2023-01-01T02:57:06.847Z,99.90
2023-01-01T03:00:04.098Z,99.90
2023-01-01T03:02:46.780Z,99.90
2023-01-01T03:05:27.483Z,99.90
2023-01-01T03:08:05.232Z,99.90
2023-01-01T03:10:41.565Z,99.90
2023-01-01T03:13:15.777Z,99.90
2023-01-01T03:15:52.466Z,99.90
2023-01-01T03:18:25.851Z,1.00
2023-01-01T03:20:57.272Z,1.00
2023-01-01T03:23:36.781Z,1.00
2023-01-01T03:26:08.717Z,1.00
2023-01-01T03:28:41.046Z,1.00
2023-01-01T03:31:12.072Z,1.00
2023-01-01T03:33:43.940Z,1.00
2023-01-01T03:36:14.752Z,1.00
2023-01-01T03:38:48.782Z,1.00
2023-01-01T03:41:23.526Z,1.00
2023-01-01T03:43:56.755Z,1.00
2023-01-01T03:46:29.261Z,1.00
2023-01-01T03:49:02.998Z,1.00
2023-01-01T03:51:45.409Z,1.00
2023-01-01T03:54:20.559Z,1.00
2023-01-01T03:56:57.001Z,1.00
2023-01-01T03:59:31.018Z,19.20
2023-01-01T04:02:05.132Z,1.00
2023-01-01T04:04:33.401Z,99.90
2023-01-01T04:07:14.270Z,8.00
2023-01-01T04:09:49.848Z,39.20
2023-01-01T04:12:19.308Z,1.00
2023-01-01T04:14:47.396Z,75.50
2023-01-01T04:17:16.799Z,99.90
2023-01-01T04:19:48.757Z,1.00
2023-01-01T04:22:23.463Z,1.00
2023-01-01T04:24:51.917Z,99.90
2023-01-01T04:27:20.020Z,1.00
2023-01-01T04:29:48.091Z,99.90
2023-01-01T04:32:17.579Z,1.00
2023-01-01T04:34:45.715Z,1.00
2023-01-01T04:37:13.937Z,1.00
2023-01-01T04:39:42.051Z,1.00
2023-01-01T04:42:10.490Z,1.00
2023-01-01T04:44:38.527Z,1.00
2023-01-01T04:47:06.835Z,1.00
2023-01-01T04:49:36.340Z,1.00
2023-01-01T04:52:05.098Z,82.00
2023-01-01T04:54:33.331Z,1.00
2023-01-01T04:57:01.376Z,16.50
2023-01-01T04:59:30.954Z,1.00
2023-01-01T05:01:59.554Z,51.10
2023-01-01T05:04:27.707Z,1.00
2023-01-01T05:06:57.090Z,1.00
2023-01-01T05:09:25.122Z,1.00
2023-01-01T05:11:54.908Z,1.00
2023-01-01T05:14:22.950Z,1.00
2023-01-01T05:16:51.075Z,1.00
2023-01-01T05:19:19.163Z,1.00
2023-01-01T05:21:47.225Z,99.90
2023-01-01T05:24:16.762Z,1.00
2023-01-01T05:26:46.194Z,1.00
2023-01-01T05:29:17.009Z,1.00
2023-01-01T05:31:46.376Z,1.00
2023-01-01T05:34:14.616Z,1.00
2023-01-01T05:36:42.774Z,1.00
2023-01-01T05:39:13.087Z,1.00
2023-01-01T05:41:43.370Z,1.00
2023-01-01T05:44:12.097Z,1.00
2023-01-01T05:46:40.373Z,1.00
2023-01-01T05:49:11.033Z,1.00
2023-01-01T05:54:06.469Z,1.00
2023-01-01T05:56:34.634Z,1.00
2023-01-01T05:59:04.180Z,1.00
2023-01-01T06:01:33.205Z,1.00
2023-01-01T06:04:01.759Z,1.00
2023-01-01T06:06:33.892Z,99.90
2023-01-01T06:09:03.717Z,94.00
2023-01-01T06:11:33.033Z,1.00
2023-01-01T06:14:03.133Z,33.50
2023-01-01T06:16:32.288Z,99.90
2023-01-01T06:19:00.686Z,57.10
2023-01-01T06:21:30.098Z,99.90
2023-01-01T06:23:59.356Z,1.00
2023-01-01T06:26:29.980Z,99.90
2023-01-01T06:28:58.769Z,99.90
2023-01-01T06:31:32.905Z,99.90
2023-01-01T06:34:03.721Z,99.90
2023-01-01T06:36:31.839Z,99.90
2023-01-01T06:39:00.405Z,99.90
2023-01-01T06:41:29.413Z,99.90
2023-01-01T06:43:57.741Z,99.90
2023-01-01T06:46:29.220Z,32.30
2023-01-01T06:48:59.554Z,99.90
2023-01-01T06:51:29.993Z,99.90
2023-01-01T06:54:00.054Z,1.00
2023-01-01T06:56:28.787Z,11.80
2023-01-01T06:58:57.043Z,1.00
2023-01-01T07:01:27.368Z,1.00
2023-01-01T07:03:58.543Z,1.00
2023-01-01T07:06:27.544Z,1.00
2023-01-01T07:08:55.621Z,1.00
2023-01-01T07:11:23.991Z,1.00
2023-01-01T07:13:52.138Z,2.00
2023-01-01T07:16:20.597Z,1.00
2023-01-01T07:18:50.476Z,1.00
2023-01-01T07:21:29.824Z,1.00
2023-01-01T07:23:58.675Z,99.90
2023-01-01T07:26:27.821Z,7.00
2023-01-01T07:29:00.918Z,1.00
2023-01-01T07:31:34.421Z,1.00
2023-01-01T07:34:02.679Z,1.00
2023-01-01T07:36:32.143Z,1.00
2023-01-01T07:39:00.238Z,87.80
2023-01-01T07:41:28.394Z,38.90
2023-01-01T07:43:56.521Z,7.30
2023-01-01T07:46:24.685Z,1.00
2023-01-01T07:48:52.956Z,99.90
2023-01-01T07:51:21.220Z,1.00
2023-01-01T07:53:50.698Z,1.00
2023-01-01T07:56:18.913Z,1.00
2023-01-01T07:58:47.243Z,1.00
2023-01-01T08:01:16.073Z,1.00
2023-01-01T08:03:44.350Z,1.00
2023-01-01T08:06:14.128Z,1.00
2023-01-01T08:08:42.368Z,1.00
2023-01-01T08:11:11.799Z,1.00
2023-01-01T08:13:39.843Z,99.90
2023-01-01T08:16:08.691Z,1.00
2023-01-01T08:18:36.819Z,99.90
2023-01-01T08:21:05.497Z,99.90
2023-01-01T08:23:33.596Z,99.90
2023-01-01T08:26:02.277Z,99.90
2023-01-01T08:28:32.190Z,99.90
2023-01-01T08:31:00.469Z,99.90
2023-01-01T08:33:28.603Z,99.90
2023-01-01T08:35:56.885Z,99.90
2023-01-01T08:38:24.967Z,99.90
2023-01-01T08:40:53.085Z,99.90
2023-01-01T08:43:21.122Z,99.90
2023-01-01T08:45:50.536Z,99.90
2023-01-01T08:48:18.585Z,99.90
2023-01-01T08:50:52.955Z,99.90
2023-01-01T08:53:21.010Z,99.90
2023-01-01T08:55:57.329Z,99.90
2023-01-01T08:58:25.504Z,99.90
2023-01-01T09:00:55.089Z,99.90
2023-01-01T09:03:23.973Z,99.90
2023-01-01T09:05:52.127Z,99.90
2023-01-01T09:08:20.247Z,99.90
2023-01-01T09:10:48.864Z,99.90
2023-01-01T09:13:19.578Z,99.90
2023-01-01T09:15:47.986Z,99.90
2023-01-01T09:18:17.542Z,99.90
2023-01-01T09:20:45.669Z,99.90
2023-01-01T09:23:14.472Z,99.90
2023-01-01T09:25:42.583Z,99.90
2023-01-01T09:28:13.877Z,99.90
2023-01-01T09:30:42.126Z,69.70
2023-01-01T09:33:10.188Z,87.80
2023-01-01T09:35:39.658Z,79.00
2023-01-01T09:38:07.696Z,88.90
2023-01-01T09:40:51.086Z,44.10
2023-01-01T09:43:29.664Z,64.30
2023-01-01T09:46:00.777Z,32.20
2023-01-01T09:48:31.962Z,1.00
2023-01-01T09:51:08.483Z,1.00
2023-01-01T09:53:43.532Z,1.00
2023-01-01T09:56:17.008Z,1.00
2023-01-01T09:58:45.329Z,1.00
2023-01-01T10:01:21.257Z,1.00
2023-01-01T10:03:55.329Z,1.00
2023-01-01T10:06:28.802Z,1.00
2023-01-01T10:09:08.623Z,1.00
2023-01-01T10:11:46.749Z,1.00
2023-01-01T10:14:23.144Z,1.00
2023-01-01T10:16:55.857Z,1.00
2023-01-01T10:19:29.628Z,1.00
2023-01-01T10:22:03.438Z,1.00
2023-01-01T10:24:44.871Z,1.00
2023-01-01T10:27:29.705Z,1.00
2023-01-01T10:30:03.795Z,1.00
2023-01-01T10:32:35.866Z,1.00
2023-01-01T10:35:05.045Z,99.90
2023-01-01T10:37:38.525Z,99.90
2023-01-01T10:40:15.119Z,99.90
2023-01-01T10:42:43.289Z,99.90
2023-01-01T10:45:15.346Z,99.90
2023-01-01T10:48:14.500Z,99.90
2023-01-01T10:50:45.392Z,99.90
2023-01-01T10:53:24.745Z,99.90
2023-01-01T10:56:01.104Z,99.90
2023-01-01T10:58:39.436Z,99.90
2023-01-01T11:01:09.343Z,99.90
2023-01-01T11:03:38.126Z,99.90
2023-01-01T11:06:15.201Z,99.90
2023-01-01T11:08:50.961Z,99.90
2023-01-01T11:11:23.682Z,99.90
2023-01-01T11:13:54.759Z,99.90
2023-01-01T11:16:23.386Z,99.90
2023-01-01T11:18:52.233Z,99.90
2023-01-01T11:21:23.004Z,99.90
2023-01-01T11:24:10.342Z,99.90
2023-01-01T11:26:38.474Z,99.90
2023-01-01T11:29:22.449Z,99.90
2023-01-01T11:31:50.823Z,99.90
2023-01-01T11:34:32.417Z,99.90
2023-01-01T11:37:20.280Z,99.90
2023-01-01T11:39:52.439Z,99.90
2023-01-01T11:42:23.631Z,99.90
2023-01-01T11:44:55.483Z,99.90
2023-01-01T11:47:28.837Z,99.90
2023-01-01T11:50:00.746Z,99.90
2023-01-01T11:52:35.570Z,99.90
2023-01-01T11:55:15.712Z,99.90
2023-01-01T11:57:52.184Z,99.90
2023-01-01T12:00:20.695Z,99.90
2023-01-01T12:02:53.596Z,99.90
2023-01-01T12:05:25.718Z,99.90
2023-01-01T12:07:54.927Z,99.90
2023-01-01T12:10:28.561Z,99.90
2023-01-01T12:13:01.959Z,99.90
2023-01-01T12:15:37.412Z,99.90
2023-01-01T12:18:13.931Z,99.90
2023-01-01T12:20:50.416Z,99.90
2023-01-01T12:23:19.848Z,99.90
2023-01-01T12:25:59.387Z,99.90
2023-01-01T12:28:39.827Z,99.90
2023-01-01T12:31:17.002Z,99.90
2023-01-01T12:34:05.349Z,99.90
2023-01-01T12:36:44.802Z,99.90
2023-01-01T12:40:15.053Z,99.90
2023-01-01T12:42:59.348Z,99.90
2023-01-01T12:45:42.003Z,99.90
2023-01-01T12:48:32.792Z,99.90
2023-01-01T12:51:05.996Z,99.90
2023-01-01T12:53:42.436Z,99.90
2023-01-01T12:56:22.477Z,99.90
2023-01-01T12:58:56.393Z,99.90
2023-01-01T13:01:33.524Z,99.90
2023-01-01T13:04:04.156Z,99.90
2023-01-01T13:06:39.340Z,99.90
2023-01-01T13:09:14.054Z,99.90
2023-01-01T13:11:45.395Z,99.90
2023-01-01T13:14:15.526Z,99.90
2023-01-01T13:16:47.289Z,99.90
2023-01-01T13:19:27.974Z,99.90
2023-01-01T13:21:56.118Z,99.90
2023-01-01T13:24:25.755Z,99.90
2023-01-01T13:26:54.531Z,99.90
2023-01-01T13:29:47.433Z,99.90
2023-01-01T13:32:16.126Z,99.90
2023-01-01T13:35:02.647Z,99.90
2023-01-01T13:37:41.932Z,99.90
2023-01-01T13:40:34.125Z,99.90
2023-01-01T13:43:22.115Z,99.90
2023-01-01T13:46:13.468Z,99.90
2023-01-01T13:49:14.098Z,99.90
2023-01-01T13:52:26.371Z,99.90
2023-01-01T13:55:30.154Z,99.90
2023-01-01T13:58:31.200Z,99.90
2023-01-01T14:01:35.009Z,99.90
2023-01-01T14:04:13.500Z,99.90
2023-01-01T14:06:44.372Z,99.90
2023-01-01T14:09:15.439Z,99.90
2023-01-01T14:11:43.586Z,99.90
2023-01-01T14:14:27.638Z,99.90
2023-01-01T14:16:58.518Z,99.90
2023-01-01T14:19:29.024Z,99.90
2023-01-01T14:21:57.565Z,99.90
2023-01-01T14:24:27.449Z,99.90
2023-01-01T14:26:56.388Z,99.90
2023-01-01T14:29:28.526Z,99.90
2023-01-01T14:31:59.397Z,99.90
2023-01-01T14:34:30.476Z,99.90
2023-01-01T14:36:59.876Z,99.90
2023-01-01T14:39:29.897Z,99.90
2023-01-01T14:42:03.327Z,99.90
2023-01-01T14:44:37.169Z,99.90
2023-01-01T14:47:05.955Z,99.90
2023-01-01T14:49:39.667Z,99.90
2023-01-01T14:52:14.197Z,99.90
2023-01-01T14:54:45.705Z,99.90
2023-01-01T14:57:18.919Z,99.90
2023-01-01T14:59:49.020Z,99.90
2023-01-01T15:02:22.563Z,99.90
2023-01-01T15:04:52.663Z,99.90
2023-01-01T15:07:22.042Z,99.90
2023-01-01T15:09:50.581Z,99.90
2023-01-01T15:12:20.234Z,99.90
2023-01-01T15:14:49.925Z,99.90
2023-01-01T15:17:19.873Z,99.90
2023-01-01T15:20:01.048Z,99.90
2023-01-01T15:22:33.454Z,99.90
2023-01-01T15:25:02.152Z,99.90
2023-01-01T15:27:32.193Z,99.90
2023-01-01T15:30:01.351Z,99.90
2023-01-01T15:32:32.265Z,99.90
2023-01-01T15:35:02.284Z,99.90
2023-01-01T15:37:35.056Z,99.90
2023-01-01T15:40:24.386Z,99.90
2023-01-01T15:43:15.913Z,99.90
2023-01-01T15:45:53.653Z,99.90
2023-01-01T15:48:26.419Z,99.90
2023-01-01T15:51:05.902Z,99.90
2023-01-01T15:53:47.980Z,99.90
2023-01-01T15:56:17.166Z,99.90
2023-01-01T15:58:54.069Z,99.90
2023-01-01T16:01:24.110Z,99.90
2023-01-01T16:03:59.073Z,99.90
2023-01-01T16:06:27.238Z,99.90
2023-01-01T16:08:56.665Z,99.90
2023-01-01T16:11:24.858Z,99.90
2023-01-01T16:13:53.009Z,1.00
2023-01-01T16:16:30.085Z,1.00
2023-01-01T16:18:59.247Z,1.00
2023-01-01T16:21:30.465Z,1.00
2023-01-01T16:24:00.404Z,1.00
2023-01-01T16:26:29.214Z,1.00
2023-01-01T16:28:58.355Z,1.00
2023-01-01T16:31:28.897Z,1.00
2023-01-01T16:33:58.740Z,1.00
2023-01-01T16:36:29.230Z,1.00
2023-01-01T16:38:59.302Z,1.00
2023-01-01T16:41:30.296Z,1.00
2023-01-01T16:43:58.709Z,1.00
2023-01-01T16:46:28.091Z,1.00
2023-01-01T16:48:56.491Z,1.00
2023-01-01T16:51:26.336Z,1.00
2023-01-01T16:53:54.449Z,1.00
2023-01-01T16:56:24.367Z,1.00
2023-01-01T16:59:01.928Z,1.00
2023-01-01T17:01:31.482Z,1.00
2023-01-01T17:04:00.105Z,1.00
2023-01-01T17:06:28.559Z,1.00
2023-01-01T17:08:56.688Z,1.00
2023-01-01T17:11:26.099Z,1.00
2023-01-01T17:13:54.283Z,1.00
2023-01-01T17:16:28.017Z,1.00
2023-01-01T17:19:15.591Z,1.00
2023-01-01T17:21:45.238Z,1.00
2023-01-01T17:24:13.538Z,1.00
2023-01-01T17:26:43.004Z,1.00
2023-01-01T17:29:12.066Z,1.00
2023-01-01T17:31:40.268Z,1.00
2023-01-01T17:34:11.873Z,1.00
2023-01-01T17:36:42.591Z,1.00
2023-01-01T17:39:11.616Z,1.00
2023-01-01T17:41:40.060Z,1.00
2023-01-01T17:44:11.100Z,1.00
2023-01-01T17:46:39.330Z,1.00
2023-01-01T17:49:08.892Z,1.00
2023-01-01T17:51:37.183Z,1.00
2023-01-01T17:54:07.032Z,1.00
2023-01-01T17:56:35.373Z,1.00
2023-01-01T17:59:03.410Z,1.00
2023-01-01T18:01:35.394Z,1.00
2023-01-01T18:04:05.681Z,1.00
2023-01-01T18:06:41.087Z,1.00
2023-01-01T18:09:13.096Z,1.00
2023-01-01T18:11:42.085Z,1.00
2023-01-01T18:14:11.382Z,1.00
2023-01-01T18:16:42.260Z,1.00
2023-01-01T18:19:10.388Z,1.00
2023-01-01T18:21:38.459Z,1.00
2023-01-01T18:24:11.906Z,1.00
2023-01-01T18:26:40.187Z,1.00
2023-01-01T18:29:08.567Z,1.00
2023-01-01T18:31:36.723Z,1.00
2023-01-01T18:34:06.983Z,1.00
2023-01-01T18:36:35.891Z,1.00
2023-01-01T18:39:11.277Z,1.00
2023-01-01T18:42:02.140Z,1.00
2023-01-01T18:44:32.106Z,99.90
2023-01-01T18:47:08.902Z,1.00
2023-01-01T18:49:39.068Z,1.00
2023-01-01T18:52:17.811Z,1.00
2023-01-01T18:54:46.007Z,1.00
2023-01-01T18:57:26.816Z,1.00
2023-01-01T18:59:58.693Z,1.00
2023-01-01T19:02:36.498Z,1.00
2023-01-01T19:05:18.445Z,1.00
2023-01-01T19:07:52.686Z,1.00
2023-01-01T19:10:20.857Z,1.00
2023-01-01T19:12:49.774Z,1.00
2023-01-01T19:15:20.182Z,1.00
2023-01-01T19:17:48.282Z,1.00
2023-01-01T19:20:24.112Z,1.00
2023-01-01T19:22:52.177Z,1.00
2023-01-01T19:25:39.236Z,1.00
2023-01-01T19:28:29.604Z,1.00
2023-01-01T19:30:58.298Z,1.00
2023-01-01T19:33:26.902Z,1.00
2023-01-01T19:35:56.479Z,1.00
2023-01-01T19:38:24.615Z,1.00
2023-01-01T19:40:52.724Z,1.00
2023-01-01T19:43:21.369Z,1.00
2023-01-01T19:45:49.500Z,1.00
2023-01-01T19:48:18.473Z,1.00
2023-01-01T19:50:47.486Z,1.00
2023-01-01T19:53:17.273Z,1.00
2023-01-01T19:55:45.277Z,1.00
2023-01-01T19:58:13.429Z,1.00
2023-01-01T20:00:41.661Z,1.00
2023-01-01T20:03:51.328Z,1.00
2023-01-01T20:05:58.107Z,1.00
2023-01-01T20:08:28.654Z,1.00
2023-01-01T20:10:56.881Z,1.00
2023-01-01T20:13:24.929Z,1.00
2023-01-01T20:15:53.100Z,99.90
2023-01-01T20:18:21.230Z,1.00
2023-01-01T20:21:07.176Z,1.00
2023-01-01T20:23:36.799Z,1.00
2023-01-01T20:26:05.301Z,1.00
2023-01-01T20:28:51.237Z,1.00
2023-01-01T20:31:19.532Z,1.00
2023-01-01T20:33:47.739Z,1.00
2023-01-01T20:36:33.589Z,1.00
2023-01-01T20:39:03.272Z,1.00
2023-01-01T20:41:31.346Z,1.00
2023-01-01T20:44:01.600Z,1.00
2023-01-01T20:46:30.956Z,1.00
2023-01-01T20:48:59.447Z,1.00
2023-01-01T20:51:27.919Z,1.00
2023-01-01T20:53:56.241Z,1.00
2023-01-01T20:56:25.763Z,1.00
2023-01-01T20:58:59.504Z,1.00
2023-01-01T21:01:30.479Z,1.00
2023-01-01T21:03:58.748Z,1.00
2023-01-01T21:06:26.979Z,1.00
2023-01-01T21:08:55.131Z,1.00
2023-01-01T21:11:23.325Z,1.00
2023-01-01T21:13:52.970Z,1.00
2023-01-01T21:16:23.714Z,1.00
2023-01-01T21:18:52.068Z,1.00
2023-01-01T21:21:22.219Z,1.00
2023-01-01T21:23:51.605Z,1.00
2023-01-01T21:26:25.974Z,1.00
2023-01-01T21:28:55.665Z,1.00
2023-01-01T21:31:23.844Z,1.00
2023-01-01T21:33:51.991Z,1.00
2023-01-01T21:36:22.362Z,1.00
2023-01-01T21:38:52.750Z,1.00
2023-01-01T21:41:23.796Z,99.90
2023-01-01T21:43:56.879Z,1.00
2023-01-01T21:46:36.050Z,99.90
2023-01-01T21:49:07.665Z,99.90
2023-01-01T21:51:41.028Z,99.90
2023-01-01T21:54:27.281Z,99.90
2023-01-01T21:56:58.837Z,99.90
2023-01-01T21:59:39.017Z,1.00
2023-01-01T22:02:41.095Z,99.90
2023-01-01T22:05:30.828Z,99.90
2023-01-01T22:08:00.296Z,99.90
2023-01-01T22:10:34.114Z,99.90
2023-01-01T22:13:02.658Z,99.90
2023-01-01T22:15:41.752Z,1.00
2023-01-01T22:18:20.490Z,99.90
2023-01-01T22:20:48.961Z,99.90
2023-01-01T22:23:36.304Z,1.00
2023-01-01T22:26:13.166Z,99.90
2023-01-01T22:28:44.307Z,1.00
2023-01-01T22:31:18.520Z,1.00
2023-01-01T22:33:48.379Z,99.90
2023-01-01T22:36:18.855Z,1.00
2023-01-01T22:38:47.192Z,99.90
2023-01-01T22:41:16.137Z,99.90
2023-01-01T22:43:47.795Z,99.90
2023-01-01T22:46:23.873Z,99.90
2023-01-01T22:48:57.829Z,99.90
2023-01-01T22:51:29.685Z,99.90
2023-01-01T22:53:57.840Z,99.90
2023-01-01T22:56:25.945Z,99.90
2023-01-01T22:58:57.187Z,99.90
2023-01-01T23:01:27.313Z,99.90
2023-01-01T23:03:55.621Z,99.90
2023-01-01T23:06:24.093Z,99.90
2023-01-01T23:08:53.789Z,99.90
2023-01-01T23:11:22.456Z,99.90
2023-01-01T23:14:09.935Z,99.90
2023-01-01T23:16:39.488Z,1.00
2023-01-01T23:19:07.873Z,99.90
2023-01-01T23:21:37.888Z,99.90
2023-01-01T23:24:09.319Z,99.90
2023-01-01T23:26:38.406Z,99.90
2023-01-01T23:29:07.330Z,99.90
2023-01-01T23:31:35.867Z,99.90
2023-01-01T23:34:05.949Z,99.90
2023-01-01T23:36:34.499Z,99.90
2023-01-01T23:39:02.980Z,99.90
2023-01-01T23:41:31.122Z,99.90
2023-01-01T23:43:59.245Z,99.90
2023-01-01T23:46:27.726Z,99.90
2023-01-01T23:48:56.473Z,99.90
2023-01-01T23:51:26.217Z,99.90
2023-01-01T23:53:54.343Z,99.90
2023-01-01T23:56:22.865Z,99.90
2023-01-01T23:58:51.172Z,99.90
